sensor_id;sensor_type;location;lat;lon;timestamp;pressure;altitude;pressure_sealevel;temperature;humidity
61109;BME280;46995;55.740;37.402;2023-05-11T00:00:29;100129.22;;;10.57;57.35
61109;BME280;46995;55.740;37.402;2023-05-11T00:02:54;100119.34;;;10.48;57.63
61109;BME280;46995;55.740;37.402;2023-05-11T00:05:20;100111.66;;;10.45;57.41
61109;BME280;46995;55.740;37.402;2023-05-11T00:07:46;100121.03;;;10.49;57.05
61109;BME280;46995;55.740;37.402;2023-05-11T00:10:12;100125.09;;;10.53;57.62
61109;BME280;46995;55.740;37.402;2023-05-11T00:12:37;100107.78;;;10.38;57.99
61109;BME280;46995;55.740;37.402;2023-05-11T00:15:03;100128.59;;;10.53;57.87
61109;BME280;46995;55.740;37.402;2023-05-11T00:17:30;100122.94;;;10.47;57.51
61109;BME280;46995;55.740;37.402;2023-05-11T00:19:56;100121.88;;;10.49;57.70
61109;BME280;46995;55.740;37.402;2023-05-11T00:22:21;100108.44;;;10.41;57.42
61109;BME280;46995;55.740;37.402;2023-05-11T00:24:47;100124.41;;;10.51;57.85
61109;BME280;46995;55.740;37.402;2023-05-11T00:27:13;100127.16;;;10.49;57.83
61109;BME280;46995;55.740;37.402;2023-05-11T00:29:38;100123.56;;;10.50;57.82
61109;BME280;46995;55.740;37.402;2023-05-11T00:32:05;100125.34;;;10.50;57.90
61109;BME280;46995;55.740;37.402;2023-05-11T00:34:31;100121.88;;;10.49;57.84
61109;BME280;46995;55.740;37.402;2023-05-11T00:36:57;100117.91;;;10.44;58.19
61109;BME280;46995;55.740;37.402;2023-05-11T00:39:23;100112.03;;;10.40;57.97
61109;BME280;46995;55.740;37.402;2023-05-11T00:41:48;100120.28;;;10.47;58.35
61109;BME280;46995;55.740;37.402;2023-05-11T00:44:14;100115.38;;;10.42;58.28
61109;BME280;46995;55.740;37.402;2023-05-11T00:46:40;100120.44;;;10.45;58.51
61109;BME280;46995;55.740;37.402;2023-05-11T00:49:06;100119.81;;;10.42;58.49
61109;BME280;46995;55.740;37.402;2023-05-11T00:51:32;100118.00;;;10.42;58.63
61109;BME280;46995;55.740;37.402;2023-05-11T00:53:59;100127.41;;;10.46;58.41
61109;BME280;46995;55.740;37.402;2023-05-11T00:56:26;100130.38;;;10.53;57.93
61109;BME280;46995;55.740;37.402;2023-05-11T00:58:52;100123.66;;;10.49;58.18
61109;BME280;46995;55.740;37.402;2023-05-11T01:01:18;100122.13;;;10.46;58.20
61109;BME280;46995;55.740;37.402;2023-05-11T01:03:44;100115.38;;;10.42;58.58
61109;BME280;46995;55.740;37.402;2023-05-11T01:06:36;100115.63;;;10.39;58.77
61109;BME280;46995;55.740;37.402;2023-05-11T01:15:09;100136.13;;;10.47;59.01
61109;BME280;46995;55.740;37.402;2023-05-11T01:17:57;100138.78;;;10.47;58.74
61109;BME280;46995;55.740;37.402;2023-05-11T01:20:28;100126.16;;;10.39;58.90
61109;BME280;46995;55.740;37.402;2023-05-11T01:23:07;100132.28;;;10.40;59.07
61109;BME280;46995;55.740;37.402;2023-05-11T01:26:06;100130.38;;;10.42;59.03
61109;BME280;46995;55.740;37.402;2023-05-11T01:31:18;100125.78;;;10.33;58.87
61109;BME280;46995;55.740;37.402;2023-05-11T01:34:01;100136.13;;;10.36;59.05
61109;BME280;46995;55.740;37.402;2023-05-11T01:36:41;100139.47;;;10.38;59.98
61109;BME280;46995;55.740;37.402;2023-05-11T01:39:09;100143.22;;;10.35;59.67
61109;BME280;46995;55.740;37.402;2023-05-11T01:41:39;100139.94;;;10.32;60.06
61109;BME280;46995;55.740;37.402;2023-05-11T01:44:16;100140.44;;;10.26;60.59
61109;BME280;46995;55.740;37.402;2023-05-11T01:46:45;100143.88;;;10.26;60.61
61109;BME280;46995;55.740;37.402;2023-05-11T01:49:13;100127.16;;;10.14;61.03
61109;BME280;46995;55.740;37.402;2023-05-11T01:51:40;100146.75;;;10.23;61.13
61109;BME280;46995;55.740;37.402;2023-05-11T01:54:08;100125.69;;;10.10;60.90
61109;BME280;46995;55.740;37.402;2023-05-11T01:56:37;100131.28;;;10.18;60.61
61109;BME280;46995;55.740;37.402;2023-05-11T01:59:05;100121.03;;;10.14;60.89
61109;BME280;46995;55.740;37.402;2023-05-11T02:01:33;100120.19;;;10.13;60.49
61109;BME280;46995;55.740;37.402;2023-05-11T02:04:02;100137.03;;;10.24;60.74
61109;BME280;46995;55.740;37.402;2023-05-11T02:06:30;100127.16;;;10.14;60.70
61109;BME280;46995;55.740;37.402;2023-05-11T02:08:58;100128.28;;;10.23;60.19
61109;BME280;46995;55.740;37.402;2023-05-11T02:11:27;100141.25;;;10.26;60.29
61109;BME280;46995;55.740;37.402;2023-05-11T02:13:56;100133.47;;;10.25;60.41
61109;BME280;46995;55.740;37.402;2023-05-11T02:16:23;100141.88;;;10.30;60.44
61109;BME280;46995;55.740;37.402;2023-05-11T02:18:52;100143.06;;;10.26;60.42
61109;BME280;46995;55.740;37.402;2023-05-11T02:21:40;100136.25;;;10.34;60.43
61109;BME280;46995;55.740;37.402;2023-05-11T02:24:08;100137.19;;;10.33;60.01
61109;BME280;46995;55.740;37.402;2023-05-11T02:26:35;100134.66;;;10.32;59.90
61109;BME280;46995;55.740;37.402;2023-05-11T02:29:01;100132.75;;;10.34;59.99
61109;BME280;46995;55.740;37.402;2023-05-11T02:31:29;100123.88;;;10.35;59.82
61109;BME280;46995;55.740;37.402;2023-05-11T02:34:06;100137.97;;;10.46;59.97
61109;BME280;46995;55.740;37.402;2023-05-11T02:36:33;100144.69;;;10.50;59.97
61109;BME280;46995;55.740;37.402;2023-05-11T02:39:06;100137.97;;;10.46;60.22
61109;BME280;46995;55.740;37.402;2023-05-11T02:41:38;100142.16;;;10.49;60.39
61109;BME280;46995;55.740;37.402;2023-05-11T02:44:06;100136.88;;;10.49;60.01
61109;BME280;46995;55.740;37.402;2023-05-11T02:46:35;100144.34;;;10.55;59.82
61109;BME280;46995;55.740;37.402;2023-05-11T02:49:06;100144.56;;;10.63;59.86
61109;BME280;46995;55.740;37.402;2023-05-11T02:51:36;100151.44;;;10.66;59.77
61109;BME280;46995;55.740;37.402;2023-05-11T02:54:05;100143.25;;;10.69;59.57
61109;BME280;46995;55.740;37.402;2023-05-11T02:56:37;100140.63;;;10.69;59.85
61109;BME280;46995;55.740;37.402;2023-05-11T02:59:03;100152.31;;;10.77;59.21
61109;BME280;46995;55.740;37.402;2023-05-11T03:01:29;100136.91;;;10.71;59.75
61109;BME280;46995;55.740;37.402;2023-05-11T03:03:55;100141.84;;;10.76;59.40
61109;BME280;46995;55.740;37.402;2023-05-11T03:06:24;100151.00;;;10.83;59.50
61109;BME280;46995;55.740;37.402;2023-05-11T03:08:50;100150.38;;;10.90;59.30
61109;BME280;46995;55.740;37.402;2023-05-11T03:11:17;100151.50;;;10.99;59.39
61109;BME280;46995;55.740;37.402;2023-05-11T03:13:46;100147.38;;;10.95;59.27
61109;BME280;46995;55.740;37.402;2023-05-11T03:16:14;100147.03;;;10.99;58.92
61109;BME280;46995;55.740;37.402;2023-05-11T03:18:40;100167.81;;;11.15;58.73
61109;BME280;46995;55.740;37.402;2023-05-11T03:21:07;100146.06;;;11.12;58.70
61109;BME280;46995;55.740;37.402;2023-05-11T03:23:34;100141.50;;;11.14;58.88
61109;BME280;46995;55.740;37.402;2023-05-11T03:26:02;100157.13;;;11.28;58.77
61109;BME280;46995;55.740;37.402;2023-05-11T03:28:30;100158.34;;;11.35;58.40
61109;BME280;46995;55.740;37.402;2023-05-11T03:31:03;100146.28;;;11.31;58.35
61109;BME280;46995;55.740;37.402;2023-05-11T03:33:31;100160.97;;;11.46;58.20
61109;BME280;46995;55.740;37.402;2023-05-11T03:35:58;100169.38;;;11.51;58.37
61109;BME280;46995;55.740;37.402;2023-05-11T03:38:27;100153.72;;;11.48;58.70
61109;BME280;46995;55.740;37.402;2023-05-11T03:40:55;100158.53;;;11.54;58.14
61109;BME280;46995;55.740;37.402;2023-05-11T03:43:25;100159.75;;;11.61;58.50
61109;BME280;46995;55.740;37.402;2023-05-11T03:45:55;100184.03;;;11.77;58.13
61109;BME280;46995;55.740;37.402;2023-05-11T03:48:22;100172.22;;;11.81;57.85
61109;BME280;46995;55.740;37.402;2023-05-11T03:50:50;100173.06;;;11.82;54.67
61109;BME280;46995;55.740;37.402;2023-05-11T03:53:16;100153.94;;;11.78;55.07
61109;BME280;46995;55.740;37.402;2023-05-11T03:55:42;100164.00;;;11.96;54.50
61109;BME280;46995;55.740;37.402;2023-05-11T03:58:09;100169.25;;;12.07;54.72
61109;BME280;46995;55.740;37.402;2023-05-11T04:00:39;100170.44;;;12.14;53.33
61109;BME280;46995;55.740;37.402;2023-05-11T04:03:06;100178.78;;;12.30;54.19
61109;BME280;46995;55.740;37.402;2023-05-11T04:05:33;100181.66;;;12.38;54.10
61109;BME280;46995;55.740;37.402;2023-05-11T04:08:01;100181.00;;;12.46;54.09
61109;BME280;46995;55.740;37.402;2023-05-11T04:10:27;100175.78;;;12.55;53.60
61109;BME280;46995;55.740;37.402;2023-05-11T04:12:53;100177.09;;;12.61;53.67
61109;BME280;46995;55.740;37.402;2023-05-11T04:15:19;100161.31;;;12.59;53.37
61109;BME280;46995;55.740;37.402;2023-05-11T04:17:46;100191.47;;;12.89;53.02
61109;BME280;46995;55.740;37.402;2023-05-11T04:20:12;100187.84;;;12.90;51.95
61109;BME280;46995;55.740;37.402;2023-05-11T04:22:38;100172.06;;;12.88;52.30
61109;BME280;46995;55.740;37.402;2023-05-11T04:25:06;100179.50;;;12.94;50.64
61109;BME280;46995;55.740;37.402;2023-05-11T04:27:32;100175.88;;;12.95;52.01
61109;BME280;46995;55.740;37.402;2023-05-11T04:29:59;100194.72;;;13.13;51.49
61109;BME280;46995;55.740;37.402;2023-05-11T04:32:29;100183.97;;;13.14;51.56
61109;BME280;46995;55.740;37.402;2023-05-11T04:34:56;100188.88;;;13.19;51.46
61109;BME280;46995;55.740;37.402;2023-05-11T04:37:24;100190.16;;;13.25;50.64
61109;BME280;46995;55.740;37.402;2023-05-11T04:39:51;100196.25;;;13.46;50.13
61109;BME280;46995;55.740;37.402;2023-05-11T04:42:16;100195.28;;;13.47;49.81
61109;BME280;46995;55.740;37.402;2023-05-11T04:44:46;100192.94;;;13.53;47.78
61109;BME280;46995;55.740;37.402;2023-05-11T04:47:11;100182.31;;;13.53;48.13
61109;BME280;46995;55.740;37.402;2023-05-11T04:49:38;100191.56;;;13.69;47.79
61109;BME280;46995;55.740;37.402;2023-05-11T04:52:05;100186.81;;;13.72;47.09
61109;BME280;46995;55.740;37.402;2023-05-11T04:54:31;100192.75;;;13.85;46.71
61109;BME280;46995;55.740;37.402;2023-05-11T04:56:58;100187.88;;;13.90;46.54
61109;BME280;46995;55.740;37.402;2023-05-11T04:59:26;100176.25;;;13.91;46.38
61109;BME280;46995;55.740;37.402;2023-05-11T05:01:52;100172.06;;;14.08;46.61
61109;BME280;46995;55.740;37.402;2023-05-11T05:04:18;100172.94;;;14.18;45.77
61109;BME280;46995;55.740;37.402;2023-05-11T05:06:43;100174.88;;;14.35;45.37
61109;BME280;46995;55.740;37.402;2023-05-11T05:09:10;100166.94;;;14.55;45.12
61109;BME280;46995;55.740;37.402;2023-05-11T05:15:16;100179.28;;;15.02;44.00
61109;BME280;46995;55.740;37.402;2023-05-11T05:17:42;100182.28;;;15.26;44.28
61109;BME280;46995;55.740;37.402;2023-05-11T05:20:08;100173.75;;;15.50;43.55
61109;BME280;46995;55.740;37.402;2023-05-11T05:22:34;100180.16;;;15.67;42.61
61109;BME280;46995;55.740;37.402;2023-05-11T05:25:01;100181.47;;;15.81;42.04
61109;BME280;46995;55.740;37.402;2023-05-11T05:27:29;100176.13;;;15.90;41.50
61109;BME280;46995;55.740;37.402;2023-05-11T05:29:59;100171.00;;;15.97;40.99
61109;BME280;46995;55.740;37.402;2023-05-11T05:32:28;100163.78;;;15.89;41.52
61109;BME280;46995;55.740;37.402;2023-05-11T05:34:54;100154.09;;;15.88;41.36
61109;BME280;46995;55.740;37.402;2023-05-11T05:37:22;100178.84;;;15.98;41.62
61109;BME280;46995;55.740;37.402;2023-05-11T05:39:48;100181.44;;;15.90;42.10
61109;BME280;46995;55.740;37.402;2023-05-11T05:42:14;100179.22;;;15.86;42.11
61109;BME280;46995;55.740;37.402;2023-05-11T05:44:39;100159.94;;;15.74;41.93
61109;BME280;46995;55.740;37.402;2023-05-11T05:47:05;100165.28;;;15.74;41.42
61109;BME280;46995;55.740;37.402;2023-05-11T05:49:33;100161.78;;;15.74;41.91
61109;BME280;46995;55.740;37.402;2023-05-11T05:51:59;100159.44;;;15.61;41.91
61109;BME280;46995;55.740;37.402;2023-05-11T05:54:26;100170.09;;;15.61;42.33
61109;BME280;46995;55.740;37.402;2023-05-11T05:56:54;100161.44;;;15.49;42.55
61109;BME280;46995;55.740;37.402;2023-05-11T05:59:22;100167.03;;;15.56;42.49
61109;BME280;46995;55.740;37.402;2023-05-11T06:01:52;100151.81;;;15.48;42.39
61109;BME280;46995;55.740;37.402;2023-05-11T06:04:22;100162.88;;;15.53;42.77
61109;BME280;46995;55.740;37.402;2023-05-11T06:06:51;100162.03;;;15.53;42.68
61109;BME280;46995;55.740;37.402;2023-05-11T06:09:17;100135.97;;;15.47;42.58
61109;BME280;46995;55.740;37.402;2023-05-11T06:11:42;100165.56;;;15.71;42.63
61109;BME280;46995;55.740;37.402;2023-05-11T06:14:09;100170.00;;;15.80;42.71
61109;BME280;46995;55.740;37.402;2023-05-11T06:16:36;100186.31;;;15.95;42.86
61109;BME280;46995;55.740;37.402;2023-05-11T06:19:02;100176.63;;;15.94;42.60
61109;BME280;46995;55.740;37.402;2023-05-11T06:21:28;100168.72;;;15.84;42.07
61109;BME280;46995;55.740;37.402;2023-05-11T06:23:54;100179.38;;;15.84;41.58
61109;BME280;46995;55.740;37.402;2023-05-11T06:26:20;100186.22;;;15.87;41.45
61109;BME280;46995;55.740;37.402;2023-05-11T06:28:50;100181.72;;;15.87;41.54
61109;BME280;46995;55.740;37.402;2023-05-11T06:31:19;100171.06;;;15.87;42.16
61109;BME280;46995;55.740;37.402;2023-05-11T06:33:46;100192.28;;;16.06;41.00
61109;BME280;46995;55.740;37.402;2023-05-11T06:36:20;100182.41;;;16.07;41.16
61109;BME280;46995;55.740;37.402;2023-05-11T06:38:46;100167.22;;;16.17;40.38
61109;BME280;46995;55.740;37.402;2023-05-11T06:41:12;100176.09;;;16.43;40.03
61109;BME280;46995;55.740;37.402;2023-05-11T06:43:38;100203.25;;;16.74;39.83
61109;BME280;46995;55.740;37.402;2023-05-11T06:46:06;100184.63;;;16.82;39.61
61109;BME280;46995;55.740;37.402;2023-05-11T06:48:32;100189.75;;;17.02;39.44
61109;BME280;46995;55.740;37.402;2023-05-11T06:50:58;100174.09;;;17.07;38.96
61109;BME280;46995;55.740;37.402;2023-05-11T06:53:24;100188.53;;;17.22;39.06
61109;BME280;46995;55.740;37.402;2023-05-11T06:55:50;100188.91;;;17.27;38.82
61109;BME280;46995;55.740;37.402;2023-05-11T06:58:16;100179.16;;;17.18;38.53
61109;BME280;46995;55.740;37.402;2023-05-11T07:00:44;100175.84;;;17.16;38.28
61109;BME280;46995;55.740;37.402;2023-05-11T07:03:10;100182.47;;;17.12;37.96
61109;BME280;46995;55.740;37.402;2023-05-11T07:05:36;100163.28;;;16.82;38.22
61109;BME280;46995;55.740;37.402;2023-05-11T07:08:09;100142.66;;;16.67;37.76
61109;BME280;46995;55.740;37.402;2023-05-11T07:10:35;100186.41;;;16.74;38.24
61109;BME280;46995;55.740;37.402;2023-05-11T07:13:01;100181.47;;;16.61;38.54
61109;BME280;46995;55.740;37.402;2023-05-11T07:15:27;100192.97;;;16.62;38.79
61109;BME280;46995;55.740;37.402;2023-05-11T07:17:52;100187.38;;;16.55;39.32
61109;BME280;46995;55.740;37.402;2023-05-11T07:20:21;100177.63;;;16.46;39.04
61109;BME280;46995;55.740;37.402;2023-05-11T07:22:47;100175.66;;;16.48;39.28
61109;BME280;46995;55.740;37.402;2023-05-11T07:25:13;100169.25;;;16.41;38.88
61109;BME280;46995;55.740;37.402;2023-05-11T07:27:39;100185.31;;;16.49;38.83
61109;BME280;46995;55.740;37.402;2023-05-11T07:30:05;100185.69;;;16.54;38.71
61109;BME280;46995;55.740;37.402;2023-05-11T07:32:32;100171.97;;;16.49;38.48
61109;BME280;46995;55.740;37.402;2023-05-11T07:35:01;100169.69;;;16.54;38.14
61109;BME280;46995;55.740;37.402;2023-05-11T07:37:32;100167.44;;;16.59;38.16
61109;BME280;46995;55.740;37.402;2023-05-11T07:39:58;100127.13;;;16.44;38.46
61109;BME280;46995;55.740;37.402;2023-05-11T07:42:23;100174.28;;;16.79;38.56
61109;BME280;46995;55.740;37.402;2023-05-11T07:44:49;100171.97;;;16.84;38.39
61109;BME280;46995;55.740;37.402;2023-05-11T07:47:15;100156.88;;;16.75;38.15
61109;BME280;46995;55.740;37.402;2023-05-11T07:49:46;100138.16;;;16.67;38.46
61109;BME280;46995;55.740;37.402;2023-05-11T07:52:13;100171.97;;;16.84;38.22
61109;BME280;46995;55.740;37.402;2023-05-11T07:54:38;100172.34;;;16.89;37.57
61109;BME280;46995;55.740;37.402;2023-05-11T07:57:05;100176.50;;;16.92;37.18
61109;BME280;46995;55.740;37.402;2023-05-11T07:59:31;100162.13;;;16.85;36.73
61109;BME280;46995;55.740;37.402;2023-05-11T08:01:57;100172.16;;;16.91;36.89
61109;BME280;46995;55.740;37.402;2023-05-11T08:04:23;100168.13;;;16.87;36.83
61109;BME280;46995;55.740;37.402;2023-05-11T08:06:49;100140.25;;;16.81;36.59
61109;BME280;46995;55.740;37.402;2023-05-11T08:09:14;100159.81;;;17.16;36.42
61109;BME280;46995;55.740;37.402;2023-05-11T08:11:40;100152.03;;;17.30;36.38
61109;BME280;46995;55.740;37.402;2023-05-11T08:14:06;100137.78;;;17.48;36.22
61109;BME280;46995;55.740;37.402;2023-05-11T08:16:32;100163.09;;;17.77;35.56
61109;BME280;46995;55.740;37.402;2023-05-11T08:18:57;100139.38;;;17.74;35.46
61109;BME280;46995;55.740;37.402;2023-05-11T08:21:23;100157.81;;;17.94;35.68
61109;BME280;46995;55.740;37.402;2023-05-11T08:23:52;100144.81;;;18.15;36.42
61109;BME280;46995;55.740;37.402;2023-05-11T08:26:18;100139.28;;;18.25;35.74
61109;BME280;46995;55.740;37.402;2023-05-11T08:28:44;100140.78;;;18.43;35.28
61109;BME280;46995;55.740;37.402;2023-05-11T08:31:10;100152.84;;;18.63;34.79
61109;BME280;46995;55.740;37.402;2023-05-11T08:33:38;100124.75;;;18.76;34.54
61109;BME280;46995;55.740;37.402;2023-05-11T08:36:05;100138.75;;;19.10;34.23
61109;BME280;46995;55.740;37.402;2023-05-11T08:38:31;100134.72;;;19.53;33.91
61109;BME280;46995;55.740;37.402;2023-05-11T08:41:00;100125.47;;;19.64;34.40
61109;BME280;46995;55.740;37.402;2023-05-11T08:43:27;100122.75;;;19.72;32.82
61109;BME280;46995;55.740;37.402;2023-05-11T08:45:56;100107.63;;;19.79;32.57
61109;BME280;46995;55.740;37.402;2023-05-11T08:48:25;100129.28;;;19.69;32.65
61109;BME280;46995;55.740;37.402;2023-05-11T08:50:51;100118.56;;;19.30;32.68
61109;BME280;46995;55.740;37.402;2023-05-11T08:53:17;100110.84;;;18.80;33.33
61109;BME280;46995;55.740;37.402;2023-05-11T08:55:43;100115.72;;;18.52;34.20
61109;BME280;46995;55.740;37.402;2023-05-11T08:58:12;100115.22;;;18.25;34.05
61109;BME280;46995;55.740;37.402;2023-05-11T09:00:44;100127.91;;;18.06;34.99
61109;BME280;46995;55.740;37.402;2023-05-11T09:03:10;100100.13;;;17.75;35.37
61109;BME280;46995;55.740;37.402;2023-05-11T09:05:37;100129.81;;;17.64;36.06
61109;BME280;46995;55.740;37.402;2023-05-11T09:08:03;100131.41;;;17.41;36.79
61109;BME280;46995;55.740;37.402;2023-05-11T09:10:30;100156.03;;;17.26;38.35
61109;BME280;46995;55.740;37.402;2023-05-11T09:12:56;100151.88;;;16.98;39.23
61109;BME280;46995;55.740;37.402;2023-05-11T09:15:22;100150.19;;;16.71;41.47
61109;BME280;46995;55.740;37.402;2023-05-11T09:17:48;100154.78;;;16.43;45.78
61109;BME280;46995;55.740;37.402;2023-05-11T09:20:29;100134.69;;;16.14;50.16
61109;BME280;46995;55.740;37.402;2023-05-11T09:22:56;100142.69;;;15.96;50.44
61109;BME280;46995;55.740;37.402;2023-05-11T09:25:24;100123.53;;;15.65;52.07
61109;BME280;46995;55.740;37.402;2023-05-11T09:27:51;100130.94;;;15.53;52.08
61109;BME280;46995;55.740;37.402;2023-05-11T09:30:19;100143.41;;;15.43;54.50
61109;BME280;46995;55.740;37.402;2023-05-11T09:32:49;100138.75;;;15.27;55.73
61109;BME280;46995;55.740;37.402;2023-05-11T09:35:25;100136.34;;;15.24;58.13
61109;BME280;46995;55.740;37.402;2023-05-11T09:40:39;100124.06;;;15.14;59.30
61109;BME280;46995;55.740;37.402;2023-05-11T09:43:22;100130.53;;;15.11;63.02
61109;BME280;46995;55.740;37.402;2023-05-11T09:45:49;100138.28;;;14.95;61.54
61109;BME280;46995;55.740;37.402;2023-05-11T09:50:42;100130.34;;;14.76;52.64
61109;BME280;46995;55.740;37.402;2023-05-11T09:53:08;100111.53;;;14.60;56.99
61109;BME280;46995;55.740;37.402;2023-05-11T09:55:34;100126.78;;;14.58;57.44
61109;BME280;46995;55.740;37.402;2023-05-11T09:58:00;100140.47;;;14.63;59.06
61109;BME280;46995;55.740;37.402;2023-05-11T10:00:27;100116.72;;;14.52;54.92
61109;BME280;46995;55.740;37.402;2023-05-11T10:03:06;100114.47;;;14.57;56.11
61109;BME280;46995;55.740;37.402;2023-05-11T10:05:34;100095.19;;;14.55;56.61
61109;BME280;46995;55.740;37.402;2023-05-11T10:08:04;100104.06;;;14.73;57.98
61109;BME280;46995;55.740;37.402;2023-05-11T10:10:32;100095.38;;;14.71;57.68
61109;BME280;46995;55.740;37.402;2023-05-11T10:13:10;100106.44;;;14.76;58.91
61109;BME280;46995;55.740;37.402;2023-05-11T10:15:39;100084.22;;;14.67;59.90
61109;BME280;46995;55.740;37.402;2023-05-11T10:18:06;100090.91;;;14.71;59.14
61109;BME280;46995;55.740;37.402;2023-05-11T10:20:32;100088.84;;;14.56;60.20
61109;BME280;46995;55.740;37.402;2023-05-11T10:22:58;100108.72;;;14.61;61.09
61109;BME280;46995;55.740;37.402;2023-05-11T10:25:24;100093.09;;;14.49;61.68
61109;BME280;46995;55.740;37.402;2023-05-11T10:27:53;100097.66;;;14.56;61.56
61109;BME280;46995;55.740;37.402;2023-05-11T10:30:20;100082.94;;;14.71;61.45
61109;BME280;46995;55.740;37.402;2023-05-11T10:32:45;100118.50;;;15.07;60.71
61109;BME280;46995;55.740;37.402;2023-05-11T10:35:11;100102.16;;;15.30;60.09
61109;BME280;46995;55.740;37.402;2023-05-11T10:37:38;100098.81;;;15.55;57.95
61109;BME280;46995;55.740;37.402;2023-05-11T10:40:05;100100.13;;;15.86;56.86
61109;BME280;46995;55.740;37.402;2023-05-11T10:53:26;100109.88;;;17.08;47.55
61109;BME280;46995;55.740;37.402;2023-05-11T11:01:58;100081.78;;;17.30;45.30
61109;BME280;46995;55.740;37.402;2023-05-11T11:04:47;100101.19;;;17.40;44.03
61109;BME280;46995;55.740;37.402;2023-05-11T11:07:14;100104.00;;;17.30;44.51
61109;BME280;46995;55.740;37.402;2023-05-11T11:09:51;100102.09;;;17.23;44.27
61109;BME280;46995;55.740;37.402;2023-05-11T11:12:18;100098.72;;;17.05;45.20
61109;BME280;46995;55.740;37.402;2023-05-11T11:14:55;100085.56;;;16.85;44.54
61109;BME280;46995;55.740;37.402;2023-05-11T11:17:26;100090.75;;;16.87;44.10
61109;BME280;46995;55.740;37.402;2023-05-11T11:19:56;100083.72;;;17.12;43.80
61109;BME280;46995;55.740;37.402;2023-05-11T11:25:01;100084.25;;;17.65;42.41
61109;BME280;46995;55.740;37.402;2023-05-11T11:30:21;100098.16;;;17.27;42.98
61109;BME280;46995;55.740;37.402;2023-05-11T11:32:52;100108.31;;;16.89;43.36
61109;BME280;46995;55.740;37.402;2023-05-11T11:35:53;100135.66;;;16.48;44.01
61109;BME280;46995;55.740;37.402;2023-05-11T11:38:20;100149.00;;;16.13;45.20
61109;BME280;46995;55.740;37.402;2023-05-11T11:40:47;100155.53;;;15.83;48.99
61109;BME280;46995;55.740;37.402;2023-05-11T11:43:21;100158.09;;;15.57;52.14
61109;BME280;46995;55.740;37.402;2023-05-11T11:48:38;100177.78;;;14.90;54.01
61109;BME280;46995;55.740;37.402;2023-05-11T11:51:11;100198.69;;;14.75;57.34
61109;BME280;46995;55.740;37.402;2023-05-11T12:01:14;100167.03;;;14.15;62.14
61109;BME280;46995;55.740;37.402;2023-05-11T12:03:42;100183.53;;;13.99;60.96
61109;BME280;46995;55.740;37.402;2023-05-11T12:06:10;100192.75;;;13.95;61.35
61109;BME280;46995;55.740;37.402;2023-05-11T12:08:38;100194.56;;;14.04;61.91
61109;BME280;46995;55.740;37.402;2023-05-11T12:11:05;100206.06;;;14.14;60.52
61109;BME280;46995;55.740;37.402;2023-05-11T12:13:32;100195.84;;;14.10;61.99
61109;BME280;46995;55.740;37.402;2023-05-11T12:16:11;100191.38;;;14.10;63.31
61109;BME280;46995;55.740;37.402;2023-05-11T12:18:38;100181.16;;;14.25;62.22
61109;BME280;46995;55.740;37.402;2023-05-11T12:21:04;100183.78;;;15.02;61.12
61109;BME280;46995;55.740;37.402;2023-05-11T12:23:30;100170.16;;;15.96;59.27
61109;BME280;46995;55.740;37.402;2023-05-11T12:26:03;100152.44;;;16.05;59.79
61109;BME280;46995;55.740;37.402;2023-05-11T12:28:29;100142.22;;;15.83;59.60
61109;BME280;46995;55.740;37.402;2023-05-11T12:30:55;100149.94;;;15.58;61.50
61109;BME280;46995;55.740;37.402;2023-05-11T12:33:22;100167.59;;;15.50;61.24
61109;BME280;46995;55.740;37.402;2023-05-11T12:35:55;100157.59;;;15.34;61.49
61109;BME280;46995;55.740;37.402;2023-05-11T12:38:21;100115.38;;;15.94;58.52
61109;BME280;46995;55.740;37.402;2023-05-11T12:40:49;100137.03;;;16.96;56.29
61109;BME280;46995;55.740;37.402;2023-05-11T12:43:20;100137.25;;;17.44;54.58
61109;BME280;46995;55.740;37.402;2023-05-11T12:45:46;100122.66;;;17.64;53.47
61109;BME280;46995;55.740;37.402;2023-05-11T12:48:13;100115.22;;;17.50;53.36
61109;BME280;46995;55.740;37.402;2023-05-11T12:50:44;100107.09;;;17.18;51.76
61109;BME280;46995;55.740;37.402;2023-05-11T12:53:15;100113.53;;;17.07;53.69
61109;BME280;46995;55.740;37.402;2023-05-11T12:55:41;100087.34;;;17.03;52.75
61109;BME280;46995;55.740;37.402;2023-05-11T12:58:11;100092.25;;;17.15;52.90
61109;BME280;46995;55.740;37.402;2023-05-11T13:00:54;100098.50;;;17.32;53.06
61109;BME280;46995;55.740;37.402;2023-05-11T13:03:27;100096.69;;;17.07;53.37
61109;BME280;46995;55.740;37.402;2023-05-11T13:06:11;100076.47;;;16.62;54.70
61109;BME280;46995;55.740;37.402;2023-05-11T13:08:46;100091.38;;;16.55;53.97
61109;BME280;46995;55.740;37.402;2023-05-11T13:11:22;100093.16;;;16.46;54.31
61109;BME280;46995;55.740;37.402;2023-05-11T13:13:51;100097.03;;;16.52;55.13
61109;BME280;46995;55.740;37.402;2023-05-11T13:16:30;100086.00;;;16.47;54.70
61109;BME280;46995;55.740;37.402;2023-05-11T13:19:01;100089.97;;;16.43;54.47
61109;BME280;46995;55.740;37.402;2023-05-11T13:21:28;100086.34;;;16.26;55.22
61109;BME280;46995;55.740;37.402;2023-05-11T13:23:54;100078.34;;;16.08;55.06
61109;BME280;46995;55.740;37.402;2023-05-11T13:26:24;100090.31;;;16.04;54.67
61109;BME280;46995;55.740;37.402;2023-05-11T13:28:51;100091.16;;;15.87;55.16
61109;BME280;46995;55.740;37.402;2023-05-11T13:31:18;100076.25;;;15.59;55.93
61109;BME280;46995;55.740;37.402;2023-05-11T13:33:50;100084.91;;;15.61;55.39
61109;BME280;46995;55.740;37.402;2023-05-11T13:36:17;100072.41;;;15.44;55.32